Time;durP1;ratioP1;P1;durP2;ratioP2;P2;SDS_P1;SDS_P2;PMS_P1;PMS_P2;Temp;Humidity;BMP_temperature;BMP_pressure;BME280_temperature;BME280_humidity;BME280_pressure;Samples;Min_cycle;Max_cycle;Signal;HPM_P1;HPM_P2
2023/05/16 00:02:24;;;;;;;0.30;0.30;;;;;;;;;;4898568;29;20032;-80
2023/05/16 00:04:50;;;;;;;0.10;0.10;;;;;;;;;;4897323;29;20028;-79
2023/05/16 00:07:16;;;;;;;0.20;0.20;;;;;;;;;;4887864;29;20035;-80
2023/05/16 00:09:41;;;;;;;0.10;0.10;;;;;;;;;;4882314;29;20028;-80
2023/05/16 00:12:07;;;;;;;0.20;0.20;;;;;;;;;;4892183;29;20025;-80
2023/05/16 00:14:34;;;;;;;0.15;0.15;;;;;;;;;;4892771;29;20035;-81
2023/05/16 00:17:00;;;;;;;0.17;0.17;;;;;;;;;;4891421;29;20050;-80
2023/05/16 00:19:28;;;;;;;0.20;0.20;;;;;;;;;;4898806;29;20476;-79
2023/05/16 00:21:54;;;;;;;0.35;0.35;;;;;;;;;;4888144;29;20048;-80
2023/05/16 00:24:19;;;;;;;0.10;0.10;;;;;;;;;;4899033;29;20032;-79
2023/05/16 00:26:45;;;;;;;0.20;0.20;;;;;;;;;;4896520;29;20103;-79
2023/05/16 00:29:10;;;;;;;0.15;0.15;;;;;;;;;;4889589;29;20054;-80
2023/05/16 00:31:35;;;;;;;0.10;0.10;;;;;;;;;;4909018;29;20029;-80
2023/05/16 00:34:01;;;;;;;0.20;0.20;;;;;;;;;;4900296;29;20024;-79
2023/05/16 00:36:26;;;;;;;0.20;0.20;;;;;;;;;;4897927;29;20017;-79
2023/05/16 00:38:51;;;;;;;0.10;0.10;;;;;;;;;;4886083;29;20032;-81
2023/05/16 00:41:17;;;;;;;0.38;0.38;;;;;;;;;;4909003;29;20071;-80
2023/05/16 00:43:42;;;;;;;0.17;0.17;;;;;;;;;;4905863;29;20046;-80
2023/05/16 00:46:07;;;;;;;0.65;0.65;;;;;;;;;;4898707;29;20032;-80
2023/05/16 00:48:33;;;;;;;0.20;0.20;;;;;;;;;;4900707;29;20032;-79
2023/05/16 00:51:00;;;;;;;0.10;0.10;;;;;;;;;;4892281;29;20084;-80
2023/05/16 00:53:26;;;;;;;0.20;0.20;;;;;;;;;;4898185;29;20033;-80
2023/05/16 00:55:51;;;;;;;0.10;0.10;;;;;;;;;;4903463;29;20029;-80
2023/05/16 00:58:18;;;;;;;0.20;0.20;;;;;;;;;;4906364;29;20427;-80
2023/05/16 01:00:46;;;;;;;0.47;0.47;;;;;;;;;;4914273;29;20028;-80
2023/05/16 01:03:11;;;;;;;0.13;0.13;;;;;;;;;;4909567;29;20024;-81
2023/05/16 01:05:36;;;;;;;0.10;0.10;;;;;;;;;;4903939;29;20047;-82
2023/05/16 01:08:02;;;;;;;0.20;0.20;;;;;;;;;;4906483;29;20032;-80
2023/05/16 01:10:35;;;;;;;0.10;0.10;;;;;;;;;;4903751;29;20024;-79
2023/05/16 01:13:11;;;;;;;0.20;0.20;;;;;;;;;;4901588;29;20044;-79
2023/05/16 01:15:46;;;;;;;0.43;0.43;;;;;;;;;;4898163;29;20024;-79
2023/05/16 01:18:28;;;;;;;0.10;0.10;;;;;;;;;;4905339;29;20053;-80
2023/05/16 01:21:06;;;;;;;0.20;0.20;;;;;;;;;;4904368;29;20100;-80
2023/05/16 01:23:56;;;;;;;0.10;0.10;;;;;;;;;;4900511;29;20037;-80
2023/05/16 01:26:23;;;;;;;0.10;0.10;;;;;;;;;;4901860;29;20626;-79
2023/05/16 01:28:50;;;;;;;0.10;0.10;;;;;;;;;;4893712;29;20055;-79
2023/05/16 01:31:16;;;;;;;0.32;0.32;;;;;;;;;;4899154;29;20032;-80
2023/05/16 01:33:42;;;;;;;0.20;0.20;;;;;;;;;;4904598;29;20039;-80
2023/05/16 01:36:32;;;;;;;0.13;0.13;;;;;;;;;;4901879;29;20084;-80
2023/05/16 01:39:09;;;;;;;0.10;0.10;;;;;;;;;;4907371;29;20039;-80
2023/05/16 01:41:46;;;;;;;0.10;0.10;;;;;;;;;;4900122;29;20472;-79
2023/05/16 01:44:28;;;;;;;0.30;0.30;;;;;;;;;;4910838;29;20028;-79
2023/05/16 01:46:56;;;;;;;0.10;0.10;;;;;;;;;;4904587;29;20037;-79
2023/05/16 01:49:28;;;;;;;0.28;0.28;;;;;;;;;;4907110;29;20107;-79
2023/05/16 01:51:57;;;;;;;;;;;;;;;;;;4914749;29;20036;-81
2023/05/16 01:54:25;;;;;;;0.20;0.20;;;;;;;;;;4906847;29;20045;-80
2023/05/16 01:56:54;;;;;;;0.20;0.20;;;;;;;;;;4904155;29;20040;-79
2023/05/16 01:59:21;;;;;;;0.10;0.10;;;;;;;;;;4906209;29;20038;-79
2023/05/16 02:01:46;;;;;;;0.20;0.20;;;;;;;;;;4909987;29;20076;-80
2023/05/16 02:04:14;;;;;;;0.47;0.47;;;;;;;;;;4916520;29;20032;-81
2023/05/16 02:06:39;;;;;;;0.20;0.20;;;;;;;;;;4916801;29;20029;-80
2023/05/16 02:09:05;;;;;;;0.10;0.10;;;;;;;;;;4913662;29;20028;-80
2023/05/16 02:11:30;;;;;;;0.50;0.50;;;;;;;;;;4924542;29;20103;-79
2023/05/16 02:13:55;;;;;;;0.22;0.22;;;;;;;;;;4898828;29;20032;-80
2023/05/16 02:16:21;;;;;;;0.20;0.20;;;;;;;;;;4892395;29;20033;-80
2023/05/16 02:18:47;;;;;;;0.40;0.40;;;;;;;;;;4913321;29;20032;-79
2023/05/16 02:21:12;;;;;;;0.75;0.75;;;;;;;;;;4905689;29;20080;-79
2023/05/16 02:23:37;;;;;;;0.10;0.10;;;;;;;;;;4894677;29;20096;-79
2023/05/16 02:26:03;;;;;;;0.93;0.85;;;;;;;;;;4886142;29;20024;-80
2023/05/16 02:28:28;;;;;;;0.22;0.22;;;;;;;;;;4899088;29;20037;-79
2023/05/16 02:31:00;;;;;;;0.38;0.38;;;;;;;;;;4903530;29;20135;-80
2023/05/16 02:33:27;;;;;;;0.20;0.20;;;;;;;;;;4916290;29;20701;-79
2023/05/16 02:35:53;;;;;;;0.28;0.28;;;;;;;;;;4892117;29;20060;-80
2023/05/16 02:38:19;;;;;;;0.20;0.20;;;;;;;;;;4891987;29;20541;-79
2023/05/16 02:40:46;;;;;;;0.20;0.20;;;;;;;;;;4900003;29;20032;-79
2023/05/16 02:43:11;;;;;;;0.20;0.20;;;;;;;;;;4909563;29;20043;-79
2023/05/16 02:45:37;;;;;;;0.50;0.50;;;;;;;;;;4891988;29;20395;-79
2023/05/16 02:48:02;;;;;;;0.25;0.25;;;;;;;;;;4912269;29;20036;-80
2023/05/16 02:50:28;;;;;;;0.15;0.15;;;;;;;;;;4899070;29;20058;-79
2023/05/16 02:52:53;;;;;;;0.90;0.85;;;;;;;;;;4905058;29;20055;-79
2023/05/16 02:55:18;;;;;;;0.40;0.40;;;;;;;;;;4908955;29;20029;-80
2023/05/16 02:57:44;;;;;;;0.13;0.13;;;;;;;;;;4892568;29;20029;-80
2023/05/16 03:00:10;;;;;;;0.10;0.10;;;;;;;;;;4904772;29;20029;-79
2023/05/16 03:02:36;;;;;;;0.32;0.32;;;;;;;;;;4903190;29;20032;-80
2023/05/16 03:05:01;;;;;;;0.20;0.20;;;;;;;;;;4900257;29;20059;-80
2023/05/16 03:07:27;;;;;;;0.20;0.20;;;;;;;;;;4905943;29;20036;-80
2023/05/16 03:09:52;;;;;;;0.20;0.20;;;;;;;;;;4917090;29;20040;-80
2023/05/16 03:12:17;;;;;;;0.20;0.20;;;;;;;;;;4902058;29;20066;-80
2023/05/16 03:14:44;;;;;;;0.10;0.10;;;;;;;;;;4910826;29;20740;-79
2023/05/16 03:17:09;;;;;;;0.25;0.25;;;;;;;;;;4902120;29;20036;-80
2023/05/16 03:19:34;;;;;;;0.20;0.20;;;;;;;;;;4917838;29;20036;-79
2023/05/16 03:22:00;;;;;;;0.20;0.20;;;;;;;;;;4904977;29;20039;-80
2023/05/16 03:24:25;;;;;;;2.05;1.95;;;;;;;;;;4897192;29;20024;-81
2023/05/16 03:26:51;;;;;;;0.10;0.10;;;;;;;;;;4899915;29;20099;-80
2023/05/16 03:29:16;;;;;;;0.10;0.10;;;;;;;;;;4892894;29;20486;-80
2023/05/16 03:31:41;;;;;;;0.32;0.32;;;;;;;;;;4906016;29;20075;-80
2023/05/16 03:34:07;;;;;;;2.00;1.85;;;;;;;;;;4910857;29;20050;-80
2023/05/16 03:36:32;;;;;;;0.20;0.20;;;;;;;;;;4899187;29;20059;-79
2023/05/16 03:38:57;;;;;;;0.30;0.30;;;;;;;;;;4889819;29;20052;-80
2023/05/16 03:41:23;;;;;;;1.98;1.13;;;;;;;;;;4899303;29;20029;-79
2023/05/16 03:43:48;;;;;;;0.20;0.20;;;;;;;;;;4899718;29;20059;-79
2023/05/16 03:46:14;;;;;;;20.92;1.55;;;;;;;;;;4901722;29;20426;-80
2023/05/16 03:48:39;;;;;;;0.20;0.20;;;;;;;;;;4897128;29;20120;-79
2023/05/16 03:51:05;;;;;;;0.10;0.10;;;;;;;;;;4888707;29;20044;-80
2023/05/16 03:53:30;;;;;;;1.13;0.63;;;;;;;;;;4886848;29;20116;-80
2023/05/16 03:55:55;;;;;;;0.68;0.68;;;;;;;;;;4899023;29;20039;-80
2023/05/16 03:58:20;;;;;;;1.50;1.10;;;;;;;;;;4900198;29;20039;-79
2023/05/16 04:00:46;;;;;;;0.20;0.20;;;;;;;;;;4894040;29;20386;-80
2023/05/16 04:03:11;;;;;;;0.20;0.20;;;;;;;;;;4900489;29;20040;-80
2023/05/16 04:05:36;;;;;;;0.40;0.40;;;;;;;;;;4896977;29;20028;-79
2023/05/16 04:08:02;;;;;;;0.65;0.65;;;;;;;;;;4892747;29;20040;-79
2023/05/16 04:10:27;;;;;;;0.28;0.28;;;;;;;;;;4905345;29;20064;-80
2023/05/16 04:12:53;;;;;;;1.45;1.38;;;;;;;;;;4898447;29;20029;-80
2023/05/16 04:15:18;;;;;;;0.40;0.40;;;;;;;;;;4887800;29;20091;-80
2023/05/16 04:17:44;;;;;;;0.20;0.20;;;;;;;;;;4897314;29;20033;-79
2023/05/16 04:20:10;;;;;;;0.15;0.15;;;;;;;;;;4887379;29;20028;-80
2023/05/16 04:22:35;;;;;;;0.60;0.60;;;;;;;;;;4907207;29;20060;-79
2023/05/16 04:25:01;;;;;;;0.30;0.30;;;;;;;;;;4880945;29;20028;-80
2023/05/16 04:27:26;;;;;;;0.10;0.10;;;;;;;;;;4901420;29;20035;-80
2023/05/16 04:29:51;;;;;;;0.77;0.77;;;;;;;;;;4884009;29;20029;-80
2023/05/16 04:32:18;;;;;;;1.02;1.02;;;;;;;;;;4898745;29;20051;-80
2023/05/16 04:34:45;;;;;;;0.50;0.50;;;;;;;;;;4908833;29;20088;-79
2023/05/16 04:37:10;;;;;;;0.28;0.28;;;;;;;;;;4883915;29;20040;-79
2023/05/16 04:39:36;;;;;;;0.80;0.80;;;;;;;;;;4882745;29;20029;-80
2023/05/16 04:42:03;;;;;;;0.20;0.20;;;;;;;;;;4898596;29;20036;-80
2023/05/16 04:44:28;;;;;;;0.20;0.20;;;;;;;;;;4898903;29;20036;-80
2023/05/16 04:46:54;;;;;;;0.63;0.63;;;;;;;;;;4902606;29;20136;-79
2023/05/16 04:49:20;;;;;;;0.32;0.32;;;;;;;;;;4904783;29;20024;-79
2023/05/16 04:51:47;;;;;;;0.20;0.20;;;;;;;;;;4904827;29;20077;-80
2023/05/16 04:54:12;;;;;;;0.85;0.85;;;;;;;;;;4909114;29;20483;-79
2023/05/16 04:56:37;;;;;;;0.63;0.63;;;;;;;;;;4900045;29;20040;-80
2023/05/16 04:59:03;;;;;;;0.30;0.30;;;;;;;;;;4906520;29;20376;-81
2023/05/16 05:01:28;;;;;;;0.15;0.15;;;;;;;;;;4896202;29;20031;-81
2023/05/16 05:03:54;;;;;;;0.43;0.43;;;;;;;;;;4905342;29;20064;-80
2023/05/16 05:06:19;;;;;;;0.43;0.43;;;;;;;;;;4896516;29;20036;-80
2023/05/16 05:08:44;;;;;;;0.25;0.25;;;;;;;;;;4908622;29;20036;-80
2023/05/16 05:11:10;;;;;;;0.20;0.20;;;;;;;;;;4917778;29;20561;-80
2023/05/16 05:13:35;;;;;;;0.10;0.10;;;;;;;;;;4912913;29;20070;-79
2023/05/16 05:16:03;;;;;;;0.30;0.30;;;;;;;;;;4903765;29;20385;-79
2023/05/16 05:18:29;;;;;;;0.28;0.28;;;;;;;;;;4899195;29;20296;-80
2023/05/16 05:20:54;;;;;;;1.85;1.23;;;;;;;;;;4909328;29;20035;-79
2023/05/16 05:23:20;;;;;;;11.30;1.00;;;;;;;;;;4900619;29;20498;-81
2023/05/16 05:25:45;;;;;;;0.43;0.43;;;;;;;;;;4886865;29;20455;-80
2023/05/16 05:28:10;;;;;;;0.43;0.43;;;;;;;;;;4907106;29;20422;-80
2023/05/16 05:30:36;;;;;;;0.43;0.43;;;;;;;;;;4916310;29;20024;-82
2023/05/16 05:33:01;;;;;;;0.38;0.38;;;;;;;;;;4893622;29;20040;-81
2023/05/16 05:35:26;;;;;;;0.28;0.28;;;;;;;;;;4896491;29;20033;-80
2023/05/16 05:37:52;;;;;;;1.25;1.10;;;;;;;;;;4884622;29;20064;-80
2023/05/16 05:40:17;;;;;;;0.40;0.40;;;;;;;;;;4900251;29;20052;-80
2023/05/16 05:42:42;;;;;;;1.90;1.80;;;;;;;;;;4916402;29;20033;-80
2023/05/16 05:45:08;;;;;;;0.20;0.20;;;;;;;;;;4904004;29;20108;-79
2023/05/16 05:47:33;;;;;;;0.38;0.38;;;;;;;;;;4888053;29;20036;-80
2023/05/16 05:49:59;;;;;;;0.65;0.63;;;;;;;;;;4904849;29;20045;-80
2023/05/16 05:52:27;;;;;;;0.20;0.20;;;;;;;;;;4901226;29;20056;-80
2023/05/16 05:54:52;;;;;;;0.40;0.40;;;;;;;;;;4890169;29;20132;-79
2023/05/16 05:57:18;;;;;;;0.70;0.63;;;;;;;;;;4902621;29;20063;-81
2023/05/16 05:59:43;;;;;;;0.10;0.10;;;;;;;;;;4897230;29;20071;-80
2023/05/16 06:02:08;;;;;;;1.70;0.30;;;;;;;;;;4899752;29;20147;-80
2023/05/16 06:04:34;;;;;;;0.30;0.30;;;;;;;;;;4911203;29;20036;-81
2023/05/16 06:06:59;;;;;;;0.50;0.50;;;;;;;;;;4889812;29;20039;-81
2023/05/16 06:09:24;;;;;;;2.35;0.52;;;;;;;;;;4905137;29;20032;-81
2023/05/16 06:11:50;;;;;;;0.10;0.10;;;;;;;;;;4913560;29;20659;-81
2023/05/16 06:14:15;;;;;;;0.30;0.30;;;;;;;;;;4907735;29;20472;-81
2023/05/16 06:16:41;;;;;;;0.20;0.20;;;;;;;;;;4889879;29;20036;-82
2023/05/16 06:19:06;;;;;;;0.25;0.25;;;;;;;;;;4890727;29;20035;-81
2023/05/16 06:21:32;;;;;;;0.10;0.10;;;;;;;;;;4901297;29;20041;-82
2023/05/16 06:23:57;;;;;;;0.20;0.20;;;;;;;;;;4900465;29;20024;-81
2023/05/16 06:26:23;;;;;;;0.15;0.15;;;;;;;;;;4902421;29;20119;-79
2023/05/16 06:28:48;;;;;;;0.30;0.30;;;;;;;;;;4905128;29;20127;-80
2023/05/16 06:31:14;;;;;;;0.20;0.20;;;;;;;;;;4918352;29;20020;-80
2023/05/16 06:33:39;;;;;;;0.30;0.30;;;;;;;;;;4908546;29;20044;-81
2023/05/16 06:36:05;;;;;;;0.15;0.15;;;;;;;;;;4898544;29;20107;-79
2023/05/16 06:38:31;;;;;;;0.52;0.52;;;;;;;;;;4900130;29;20126;-79
2023/05/16 06:40:56;;;;;;;0.65;0.65;;;;;;;;;;4906885;29;20052;-80
2023/05/16 06:43:22;;;;;;;0.43;0.43;;;;;;;;;;4904875;29;20442;-80
2023/05/16 06:45:47;;;;;;;0.10;0.10;;;;;;;;;;4905137;29;20087;-81
2023/05/16 06:48:16;;;;;;;1.35;0.68;;;;;;;;;;4896434;29;20025;-80
2023/05/16 06:50:41;;;;;;;0.30;0.30;;;;;;;;;;4912938;29;20044;-80
2023/05/16 06:53:07;;;;;;;0.15;0.15;;;;;;;;;;4886055;29;20032;-80
2023/05/16 06:55:33;;;;;;;0.22;0.22;;;;;;;;;;4908025;29;20111;-80
2023/05/16 06:57:58;;;;;;;0.28;0.28;;;;;;;;;;4905935;29;20024;-79
2023/05/16 07:00:24;;;;;;;0.32;0.32;;;;;;;;;;4894070;29;20039;-80
2023/05/16 07:02:50;;;;;;;0.38;0.38;;;;;;;;;;4897008;29;20032;-81
2023/05/16 07:05:15;;;;;;;0.30;0.30;;;;;;;;;;4914726;29;20037;-80
2023/05/16 07:07:41;;;;;;;0.30;0.30;;;;;;;;;;4915505;29;20044;-80
2023/05/16 07:10:07;;;;;;;0.30;0.30;;;;;;;;;;4915571;29;20028;-81
2023/05/16 07:12:34;;;;;;;0.40;0.40;;;;;;;;;;4901830;29;20020;-80
2023/05/16 07:14:59;;;;;;;0.95;0.73;;;;;;;;;;4883326;29;20032;-80
2023/05/16 07:17:25;;;;;;;0.43;0.43;;;;;;;;;;4902810;29;20032;-81
2023/05/16 07:19:50;;;;;;;0.20;0.20;;;;;;;;;;4901958;29;20044;-80
2023/05/16 07:22:16;;;;;;;0.30;0.30;;;;;;;;;;4904078;29;20036;-80
2023/05/16 07:24:44;;;;;;;0.40;0.40;;;;;;;;;;4911052;29;20033;-81
2023/05/16 07:27:10;;;;;;;0.20;0.20;;;;;;;;;;4941705;23;20073;-83
2023/05/16 07:29:36;;;;;;;0.25;0.25;;;;;;;;;;4925281;29;20060;-80
2023/05/16 07:32:01;;;;;;;0.20;0.20;;;;;;;;;;4940561;29;20032;-83
2023/05/16 07:34:26;;;;;;;0.55;0.55;;;;;;;;;;4930120;29;20107;-78
2023/05/16 07:36:52;;;;;;;0.15;0.15;;;;;;;;;;4921222;29;20039;-80
2023/05/16 07:39:17;;;;;;;0.20;0.20;;;;;;;;;;4922357;29;20028;-82
2023/05/16 07:41:43;;;;;;;0.40;0.40;;;;;;;;;;4929270;29;20032;-82
2023/05/16 07:44:08;;;;;;;0.30;0.30;;;;;;;;;;4908795;29;20023;-80
2023/05/16 07:46:33;;;;;;;0.13;0.13;;;;;;;;;;4926942;29;20027;-82
2023/05/16 07:48:58;;;;;;;0.20;0.20;;;;;;;;;;4926237;29;20023;-83
2023/05/16 07:51:24;;;;;;;0.15;0.15;;;;;;;;;;4940474;29;20027;-83
2023/05/16 07:53:50;;;;;;;0.10;0.10;;;;;;;;;;4917477;29;20478;-81
2023/05/16 07:56:16;;;;;;;0.10;0.10;;;;;;;;;;4915534;29;20020;-82
2023/05/16 07:58:41;;;;;;;0.10;0.10;;;;;;;;;;4920385;29;20035;-81
2023/05/16 08:01:06;;;;;;;0.32;0.32;;;;;;;;;;4922100;29;20028;-82
2023/05/16 08:03:32;;;;;;;0.32;0.32;;;;;;;;;;4933698;29;20032;-81
2023/05/16 08:05:57;;;;;;;0.57;0.28;;;;;;;;;;4904315;29;20394;-79
2023/05/16 08:08:22;;;;;;;0.20;0.20;;;;;;;;;;4914054;29;20037;-83
2023/05/16 08:10:48;;;;;;;0.17;0.17;;;;;;;;;;4927163;29;20032;-82
2023/05/16 08:13:13;;;;;;;0.20;0.20;;;;;;;;;;4922886;29;20032;-82
2023/05/16 08:15:38;;;;;;;0.10;0.10;;;;;;;;;;4933592;29;20028;-82
2023/05/16 08:18:13;;;;;;;0.47;0.47;;;;;;;;;;4927776;29;20035;-83
2023/05/16 08:20:39;;;;;;;0.10;0.10;;;;;;;;;;4905816;29;20510;-82
2023/05/16 08:23:04;;;;;;;0.65;0.47;;;;;;;;;;4920335;29;20035;-81
2023/05/16 08:25:30;;;;;;;0.25;0.22;;;;;;;;;;4902867;29;20039;-82
2023/05/16 08:27:56;;;;;;;0.20;0.20;;;;;;;;;;4921441;29;20039;-83
2023/05/16 08:30:21;;;;;;;0.40;0.40;;;;;;;;;;4932942;29;20023;-82
2023/05/16 08:32:46;;;;;;;0.40;0.40;;;;;;;;;;4909489;29;20034;-82
2023/05/16 08:35:12;;;;;;;0.10;0.10;;;;;;;;;;4924741;29;20056;-79
2023/05/16 08:37:37;;;;;;;0.60;0.60;;;;;;;;;;4924318;29;20032;-82
2023/05/16 08:40:07;;;;;;;0.25;0.25;;;;;;;;;;4902134;29;20040;-83
2023/05/16 08:42:33;;;;;;;0.15;0.15;;;;;;;;;;4919774;29;21145;-82
2023/05/16 08:44:58;;;;;;;0.20;0.20;;;;;;;;;;4902495;29;20028;-83
2023/05/16 08:47:25;;;;;;;0.57;0.57;;;;;;;;;;4916690;29;20088;-83
2023/05/16 08:49:53;;;;;;;0.20;0.20;;;;;;;;;;4925961;29;20121;-82
2023/05/16 08:52:25;;;;;;;1.02;0.73;;;;;;;;;;4911931;29;20031;-81
2023/05/16 08:54:51;;;;;;;0.50;0.50;;;;;;;;;;4915238;29;20024;-81
2023/05/16 08:57:18;;;;;;;0.28;0.28;;;;;;;;;;4907978;29;20046;-83
2023/05/16 08:59:44;;;;;;;0.13;0.13;;;;;;;;;;4927146;29;20047;-84
2023/05/16 09:02:10;;;;;;;0.43;0.43;;;;;;;;;;4915309;29;20498;-82
2023/05/16 09:04:36;;;;;;;0.30;0.30;;;;;;;;;;4919625;29;20031;-82
2023/05/16 09:07:01;;;;;;;0.75;0.75;;;;;;;;;;4917817;29;20102;-83
2023/05/16 09:09:26;;;;;;;0.30;0.30;;;;;;;;;;4914488;29;20032;-85
2023/05/16 09:11:52;;;;;;;0.13;0.13;;;;;;;;;;4922669;29;20177;-82
2023/05/16 09:14:17;;;;;;;0.40;0.40;;;;;;;;;;4916569;29;20036;-82
2023/05/16 09:16:44;;;;;;;0.35;0.35;;;;;;;;;;4904954;29;20032;-82
2023/05/16 09:19:11;;;;;;;0.32;0.32;;;;;;;;;;4919600;29;20028;-81
2023/05/16 09:21:38;;;;;;;0.22;0.22;;;;;;;;;;4910220;29;20032;-81
2023/05/16 09:24:05;;;;;;;0.38;0.38;;;;;;;;;;4921925;29;20032;-81
2023/05/16 09:26:32;;;;;;;0.28;0.28;;;;;;;;;;4915740;29;20032;-82
2023/05/16 09:28:59;;;;;;;0.55;0.55;;;;;;;;;;4927840;29;20042;-82
2023/05/16 09:31:26;;;;;;;0.20;0.20;;;;;;;;;;4916089;29;20032;-81
2023/05/16 09:33:55;;;;;;;0.20;0.20;;;;;;;;;;4916346;29;20541;-83
2023/05/16 09:36:26;;;;;;;0.32;0.32;;;;;;;;;;4962813;23;20045;-81
2023/05/16 09:38:52;;;;;;;0.15;0.15;;;;;;;;;;4904155;29;20065;-82
2023/05/16 09:41:17;;;;;;;0.20;0.20;;;;;;;;;;4904326;29;20051;-81
2023/05/16 09:43:43;;;;;;;0.30;0.30;;;;;;;;;;4897982;29;20047;-81
2023/05/16 09:46:13;;;;;;;0.20;0.20;;;;;;;;;;4882354;29;20056;-80
2023/05/16 09:48:48;;;;;;;0.68;0.68;;;;;;;;;;4870687;29;20105;-79
2023/05/16 09:51:13;;;;;;;0.10;0.10;;;;;;;;;;4877588;29;20033;-82
2023/05/16 09:53:40;;;;;;;0.63;0.63;;;;;;;;;;4878554;29;20028;-81
2023/05/16 09:56:09;;;;;;;0.28;0.28;;;;;;;;;;4874126;29;20039;-81
2023/05/16 09:58:39;;;;;;;0.20;0.20;;;;;;;;;;4880259;29;20060;-83
2023/05/16 10:01:06;;;;;;;2.95;2.30;;;;;;;;;;4886433;29;20044;-82
2023/05/16 10:03:33;;;;;;;0.57;0.57;;;;;;;;;;4902904;29;20028;-82
2023/05/16 10:05:59;;;;;;;0.28;0.28;;;;;;;;;;4864606;29;20029;-83
2023/05/16 10:08:25;;;;;;;0.82;0.82;;;;;;;;;;4880418;29;20029;-79
2023/05/16 10:10:52;;;;;;;0.20;0.20;;;;;;;;;;4887219;29;20141;-77
2023/05/16 10:13:20;;;;;;;0.10;0.10;;;;;;;;;;4896385;29;20039;-81
2023/05/16 10:15:48;;;;;;;0.28;0.28;;;;;;;;;;4903147;29;20045;-81
2023/05/16 10:18:17;;;;;;;0.17;0.17;;;;;;;;;;4899900;29;20017;-79
2023/05/16 10:20:44;;;;;;;0.13;0.13;;;;;;;;;;4894926;29;20093;-80
2023/05/16 10:23:18;;;;;;;0.20;0.20;;;;;;;;;;4896680;29;20039;-82
2023/05/16 10:25:45;;;;;;;0.00;0.00;;;;;;;;;;4890533;29;20029;-81
2023/05/16 10:28:11;;;;;;;0.32;0.32;;;;;;;;;;4889531;29;20108;-82
2023/05/16 10:30:42;;;;;;;0.20;0.20;;;;;;;;;;4893202;29;20029;-82
2023/05/16 10:33:09;;;;;;;0.15;0.15;;;;;;;;;;4884849;29;20499;-82
2023/05/16 10:35:35;;;;;;;0.10;0.10;;;;;;;;;;4887700;29;20480;-82
2023/05/16 10:38:02;;;;;;;0.10;0.10;;;;;;;;;;4884061;29;20120;-82
2023/05/16 10:40:28;;;;;;;0.57;0.57;;;;;;;;;;4886245;29;20041;-82
2023/05/16 10:42:59;;;;;;;0.00;0.00;;;;;;;;;;4884705;29;20495;-82
2023/05/16 10:45:24;;;;;;;0.28;0.28;;;;;;;;;;4884471;29;20651;-82
2023/05/16 10:48:11;;;;;;;0.10;0.10;;;;;;;;;;4882899;29;20048;-82
2023/05/16 10:50:44;;;;;;;0.32;0.32;;;;;;;;;;4884822;29;20040;-83
2023/05/16 10:53:18;;;;;;;0.20;0.20;;;;;;;;;;4891420;29;20403;-84
2023/05/16 10:55:49;;;;;;;0.45;0.45;;;;;;;;;;4878060;29;20033;-79
2023/05/16 10:58:22;;;;;;;0.10;0.10;;;;;;;;;;4877637;29;20036;-83
2023/05/16 11:00:47;;;;;;;0.10;0.10;;;;;;;;;;4880211;29;20098;-85
2023/05/16 11:03:24;;;;;;;0.20;0.20;;;;;;;;;;4883845;29;20102;-86
2023/05/16 11:05:52;;;;;;;0.20;0.20;;;;;;;;;;4889298;29;20036;-83
2023/05/16 11:08:18;;;;;;;0.20;0.20;;;;;;;;;;4884195;29;20532;-83
2023/05/16 11:10:43;;;;;;;0.13;0.13;;;;;;;;;;4886958;29;20075;-81
2023/05/16 11:13:09;;;;;;;0.20;0.20;;;;;;;;;;4890563;29;20024;-83
2023/05/16 11:16:00;;;;;;;0.10;0.10;;;;;;;;;;4866114;29;20055;-82
2023/05/16 11:18:31;;;;;;;0.20;0.20;;;;;;;;;;4864690;29;20033;-87
2023/05/16 11:21:02;;;;;;;0.10;0.10;;;;;;;;;;4888355;29;20029;-83
2023/05/16 11:23:27;;;;;;;0.10;0.10;;;;;;;;;;4883167;29;20437;-84
2023/05/16 11:25:55;;;;;;;0.40;0.40;;;;;;;;;;4885757;29;20093;-83
2023/05/16 11:28:24;;;;;;;0.20;0.20;;;;;;;;;;4878682;29;20029;-84
2023/05/16 11:30:54;;;;;;;0.20;0.20;;;;;;;;;;4883886;29;20056;-83
2023/05/16 11:33:19;;;;;;;0.20;0.20;;;;;;;;;;4895328;29;20021;-84
2023/05/16 11:36:04;;;;;;;0.20;0.20;;;;;;;;;;4864385;29;20111;-82
2023/05/16 11:38:31;;;;;;;0.20;0.20;;;;;;;;;;4880377;29;20025;-82
2023/05/16 11:41:05;;;;;;;0.20;0.20;;;;;;;;;;4892481;29;20088;-83
2023/05/16 11:43:50;;;;;;;0.10;0.10;;;;;;;;;;4885609;29;20124;-82
2023/05/16 11:46:16;;;;;;;0.20;0.20;;;;;;;;;;4880794;29;20049;-84
2023/05/16 11:48:42;;;;;;;0.20;0.20;;;;;;;;;;4882357;29;20431;-83
2023/05/16 11:51:09;;;;;;;0.10;0.10;;;;;;;;;;4883227;29;20483;-83
2023/05/16 11:53:34;;;;;;;0.40;0.40;;;;;;;;;;4889611;29;20040;-84
2023/05/16 11:56:01;;;;;;;0.20;0.20;;;;;;;;;;4887882;29;20025;-81
2023/05/16 11:58:27;;;;;;;0.43;0.43;;;;;;;;;;4882786;29;20028;-84
2023/05/16 12:00:52;;;;;;;0.38;0.38;;;;;;;;;;4895772;29;20060;-83
2023/05/16 12:03:19;;;;;;;0.20;0.20;;;;;;;;;;4865423;29;20033;-82
2023/05/16 12:05:52;;;;;;;0.17;0.17;;;;;;;;;;4880861;29;20104;-81
2023/05/16 12:08:23;;;;;;;0.20;0.20;;;;;;;;;;4880741;29;20047;-81
2023/05/16 12:10:50;;;;;;;0.20;0.20;;;;;;;;;;4882512;29;20024;-83
2023/05/16 12:13:16;;;;;;;0.10;0.10;;;;;;;;;;4890471;29;20033;-82
2023/05/16 12:15:42;;;;;;;0.10;0.10;;;;;;;;;;4885258;29;20206;-83
2023/05/16 12:18:08;;;;;;;0.20;0.20;;;;;;;;;;4884750;29;20039;-82
2023/05/16 12:20:34;;;;;;;0.30;0.30;;;;;;;;;;4881012;29;20036;-83
2023/05/16 12:22:59;;;;;;;0.10;0.10;;;;;;;;;;4894179;29;20028;-82
2023/05/16 12:25:35;;;;;;;0.20;0.20;;;;;;;;;;4879406;29;20025;-83
2023/05/16 12:28:02;;;;;;;0.10;0.10;;;;;;;;;;4886729;29;20044;-81
2023/05/16 12:30:29;;;;;;;0.32;0.32;;;;;;;;;;4869350;29;20041;-83
2023/05/16 12:32:58;;;;;;;0.17;0.17;;;;;;;;;;4878638;29;20559;-81
2023/05/16 12:35:26;;;;;;;0.10;0.10;;;;;;;;;;4876408;29;20582;-83
2023/05/16 12:37:52;;;;;;;0.52;0.52;;;;;;;;;;4882277;29;20040;-84
2023/05/16 12:40:19;;;;;;;0.13;0.13;;;;;;;;;;4884669;29;20035;-80
2023/05/16 12:42:45;;;;;;;0.40;0.40;;;;;;;;;;4881310;29;20040;-83
2023/05/16 12:45:19;;;;;;;0.17;0.17;;;;;;;;;;4879996;29;20025;-85
2023/05/16 12:47:45;;;;;;;0.20;0.20;;;;;;;;;;4878765;29;20548;-84
2023/05/16 12:50:16;;;;;;;0.10;0.10;;;;;;;;;;4864642;29;20054;-83
2023/05/16 12:52:58;;;;;;;0.20;0.20;;;;;;;;;;4882107;29;20150;-83
2023/05/16 12:55:23;;;;;;;0.20;0.20;;;;;;;;;;4882229;29;20032;-84
2023/05/16 12:57:49;;;;;;;4.20;2.28;;;;;;;;;;4885026;29;20044;-85
2023/05/16 13:00:20;;;;;;;0.10;0.10;;;;;;;;;;4864069;29;20025;-85
2023/05/16 13:02:46;;;;;;;0.20;0.20;;;;;;;;;;4873703;29;20044;-84
2023/05/16 13:05:14;;;;;;;0.10;0.10;;;;;;;;;;4882342;29;20061;-84
2023/05/16 13:07:40;;;;;;;0.20;0.20;;;;;;;;;;4879369;29;20029;-84
2023/05/16 13:10:10;;;;;;;0.10;0.10;;;;;;;;;;4886034;29;20025;-82
2023/05/16 13:12:39;;;;;;;0.50;0.50;;;;;;;;;;4876003;29;20041;-83
2023/05/16 13:15:09;;;;;;;0.20;0.20;;;;;;;;;;4872697;29;20476;-84
2023/05/16 13:17:35;;;;;;;0.10;0.10;;;;;;;;;;4880601;29;20028;-85
2023/05/16 13:20:08;;;;;;;0.15;0.15;;;;;;;;;;4879028;29;20033;-84
2023/05/16 13:23:18;;;;;;;0.30;0.30;;;;;;;;;;4877877;29;20065;-82
2023/05/16 13:26:26;;;;;;;0.10;0.10;;;;;;;;;;4850298;29;20805;-83
2023/05/16 13:29:28;;;;;;;0.10;0.10;;;;;;;;;;4839477;29;20324;-81
2023/05/16 16:58:00;;;;;;;0.10;0.10;;;;;;;;;;4869361;29;20073;-79
2023/05/16 17:00:26;;;;;;;0.32;0.32;;;;;;;;;;4879074;29;20471;-79
2023/05/16 17:02:51;;;;;;;0.20;0.20;;;;;;;;;;4878621;29;21026;-80
2023/05/16 17:05:17;;;;;;;0.17;0.17;;;;;;;;;;4894774;29;20044;-79
2023/05/16 17:07:42;;;;;;;0.10;0.10;;;;;;;;;;4891149;29;20044;-80
2023/05/16 17:10:08;;;;;;;0.10;0.10;;;;;;;;;;4873074;29;20184;-79
2023/05/16 17:12:33;;;;;;;0.10;0.10;;;;;;;;;;4892149;29;20044;-79
2023/05/16 17:14:59;;;;;;;0.10;0.10;;;;;;;;;;4900239;29;20115;-79
2023/05/16 17:17:24;;;;;;;0.10;0.10;;;;;;;;;;4892956;29;20040;-78
2023/05/16 17:19:50;;;;;;;0.20;0.20;;;;;;;;;;4888901;29;20098;-79
2023/05/16 17:22:16;;;;;;;0.10;0.10;;;;;;;;;;4892871;29;20036;-79
2023/05/16 17:24:42;;;;;;;0.10;0.10;;;;;;;;;;4885720;29;20037;-79
2023/05/16 17:27:07;;;;;;;0.20;0.20;;;;;;;;;;4888006;29;20033;-79
2023/05/16 17:29:33;;;;;;;0.10;0.10;;;;;;;;;;4908939;29;20032;-79
2023/05/16 17:31:58;;;;;;;0.10;0.10;;;;;;;;;;4896313;29;20037;-79
2023/05/16 17:34:23;;;;;;;0.10;0.10;;;;;;;;;;4898146;29;20036;-78
2023/05/16 17:36:49;;;;;;;0.10;0.10;;;;;;;;;;4895026;29;20021;-79
2023/05/16 17:39:15;;;;;;;0.10;0.10;;;;;;;;;;4896908;29;20047;-78
2023/05/16 17:41:41;;;;;;;0.13;0.13;;;;;;;;;;4896120;29;20031;-78
2023/05/16 17:44:06;;;;;;;0.13;0.13;;;;;;;;;;4899376;29;20028;-78
2023/05/16 17:46:33;;;;;;;0.13;0.13;;;;;;;;;;4886710;29;20029;-78
2023/05/16 17:49:01;;;;;;;0.10;0.10;;;;;;;;;;4896923;29;20021;-79
2023/05/16 17:51:26;;;;;;;0.10;0.10;;;;;;;;;;4899165;29;20124;-79
2023/05/16 17:53:53;;;;;;;0.10;0.10;;;;;;;;;;4899251;29;20500;-79
2023/05/16 17:56:18;;;;;;;0.10;0.10;;;;;;;;;;4892631;29;20028;-79
2023/05/16 17:58:44;;;;;;;0.10;0.10;;;;;;;;;;4885296;29;20092;-78
2023/05/16 18:01:11;;;;;;;0.10;0.10;;;;;;;;;;4899091;29;20039;-80
2023/05/16 18:03:38;;;;;;;0.20;0.20;;;;;;;;;;4902297;29;20040;-79
2023/05/16 18:06:03;;;;;;;0.17;0.17;;;;;;;;;;4895816;29;20060;-81
2023/05/16 18:08:29;;;;;;;0.10;0.10;;;;;;;;;;4902198;29;20033;-80
2023/05/16 18:10:54;;;;;;;0.10;0.10;;;;;;;;;;4903719;29;20024;-80